Terminal Aerodrome Forecast
Issued by NWS

Current Version | Previous Version | Text Only | Print | Product List | Glossary On
Versions: 1 2 3 4 5 6 7 8 9 10 11 12 13 14 15
772
FTUS46 KLOX 292336
TAFSBP
TAF
KSBP 292336Z 3000/3024 30009KT P6SM SKC
     FM300300 VRB03KT P6SM SKC
     FM300700 VRB03KT 2SM BR OVC004
     FM300900 VRB03KT 1/2SM FG VV002
     FM301600 VRB03KT P6SM SCT002
     FM302000 30012KT P6SM SKC=

USA.gov is the U.S. government's official web portal to all federal, state and local government web resources and services.